Time;durP1;ratioP1;P1;durP2;ratioP2;P2;SDS_P1;SDS_P2;PMS_P1;PMS_P2;Temp;Humidity;BMP_temperature;BMP_pressure;BME280_temperature;BME280_humidity;BME280_pressure;Samples;Min_cycle;Max_cycle;Signal;HPM_P1;HPM_P2
2021/09/05 00:00:48;;;;;;;8.07;7.22;;;17.30;99.90;;;;;;5073401;28;20752;-75
2021/09/05 00:03:15;;;;;;;9.02;7.63;;;17.30;99.90;;;;;;5073333;28;20296;-75
2021/09/05 00:05:42;;;;;;;10.30;8.50;;;17.30;99.90;;;;;;5074282;28;20297;-75
2021/09/05 00:08:08;;;;;;;10.20;8.35;;;17.40;99.90;;;;;;5077043;28;20226;-75
2021/09/05 00:10:35;;;;;;;9.57;7.50;;;17.30;99.90;;;;;;5077269;28;20202;-75
2021/09/05 00:13:02;;;;;;;7.43;6.50;;;17.30;99.90;;;;;;5077184;28;20309;-75
2021/09/05 00:15:30;;;;;;;7.97;7.15;;;17.30;99.90;;;;;;5076616;28;20314;-76
2021/09/05 00:17:57;;;;;;;9.88;7.43;;;17.20;99.90;;;;;;5077108;28;20301;-75
2021/09/05 00:20:24;;;;;;;9.18;6.72;;;17.20;99.90;;;;;;5077116;28;20289;-75
2021/09/05 00:22:51;;;;;;;9.25;7.50;;;17.20;99.90;;;;;;5076871;28;20236;-75
2021/09/05 00:25:18;;;;;;;9.80;7.97;;;17.20;99.90;;;;;;5076803;28;20313;-75
2021/09/05 00:27:44;;;;;;;11.23;8.18;;;17.10;99.90;;;;;;5076824;28;20688;-75
2021/09/05 00:30:11;;;;;;;10.10;8.02;;;17.10;99.90;;;;;;5076501;28;20313;-75
2021/09/05 00:32:40;;;;;;;9.18;6.90;;;17.10;99.90;;;;;;5077000;28;20210;-75
2021/09/05 00:35:08;;;;;;;9.13;7.25;;;17.10;99.90;;;;;;5076654;28;20230;-75
2021/09/05 00:37:35;;;;;;;8.18;6.35;;;17.10;99.90;;;;;;5076747;28;20212;-75
2021/09/05 00:40:01;;;;;;;8.85;6.88;;;17.10;99.90;;;;;;5076685;28;20229;-75
2021/09/05 00:42:29;;;;;;;12.65;7.00;;;17.10;99.90;;;;;;5076712;28;20619;-75
2021/09/05 00:44:56;;;;;;;9.43;6.90;;;17.10;99.90;;;;;;5076091;28;20313;-75
2021/09/05 00:47:23;;;;;;;8.75;7.38;;;17.10;99.90;;;;;;5076559;28;20207;-75
2021/09/05 00:49:51;;;;;;;7.50;6.75;;;17.10;99.90;;;;;;5076330;28;20313;-75
2021/09/05 00:52:19;;;;;;;6.93;6.22;;;17.10;99.90;;;;;;5076630;28;20306;-75
2021/09/05 00:54:46;;;;;;;8.15;6.47;;;17.10;99.90;;;;;;5075969;28;20223;-75
2021/09/05 00:57:15;;;;;;;8.32;7.18;;;17.10;99.90;;;;;;5076324;28;20229;-75
2021/09/05 00:59:45;;;;;;;8.13;6.85;;;17.00;99.90;;;;;;5076324;28;20206;-75
2021/09/05 01:02:12;;;;;;;8.23;6.63;;;16.90;99.90;;;;;;5076072;28;20202;-75
2021/09/05 01:04:39;;;;;;;9.20;7.00;;;16.90;99.90;;;;;;5076148;28;20222;-75
2021/09/05 01:07:07;;;;;;;9.27;7.30;;;16.90;99.90;;;;;;5076010;28;20301;-75
2021/09/05 01:09:36;;;;;;;10.15;7.60;;;16.80;99.90;;;;;;5076026;28;20333;-75
2021/09/05 01:12:04;;;;;;;9.07;7.10;;;16.80;99.90;;;;;;5075856;28;20241;-75
2021/09/05 01:14:31;;;;;;;11.18;7.35;;;16.70;99.90;;;;;;5075708;28;20784;-75
2021/09/05 01:16:57;;;;;;;9.15;7.10;;;16.60;99.90;;;;;;5075357;28;20244;-75
2021/09/05 01:19:25;;;;;;;9.30;7.15;;;16.60;99.90;;;;;;5076505;28;20215;-75
2021/09/05 01:21:53;;;;;;;7.53;6.78;;;16.70;99.90;;;;;;5075939;28;20568;-75
2021/09/05 01:24:22;;;;;;;10.55;8.00;;;16.70;99.90;;;;;;5076269;28;20588;-75
2021/09/05 01:26:51;;;;;;;9.68;7.43;;;16.60;99.90;;;;;;5075459;28;20658;-75
2021/09/05 01:29:20;;;;;;;10.57;7.25;;;16.60;99.90;;;;;;5075532;28;20241;-75
2021/09/05 01:31:49;;;;;;;8.73;6.88;;;16.60;99.90;;;;;;5076026;28;20205;-75
2021/09/05 01:34:18;;;;;;;7.90;6.75;;;16.60;99.90;;;;;;5075484;28;20731;-75
2021/09/05 01:36:46;;;;;;;7.72;6.63;;;16.60;99.90;;;;;;5075507;28;20206;-75
2021/09/05 01:39:14;;;;;;;12.68;7.50;;;16.60;99.90;;;;;;5075585;28;20204;-75
2021/09/05 01:41:41;;;;;;;12.63;7.50;;;16.50;99.90;;;;;;5075455;28;20694;-75
2021/09/05 01:44:10;;;;;;;8.00;6.75;;;16.50;99.90;;;;;;5075419;28;20232;-75
2021/09/05 01:46:39;;;;;;;8.15;6.85;;;16.50;99.90;;;;;;5075316;28;20206;-75
2021/09/05 01:49:06;;;;;;;8.43;7.50;;;16.50;99.90;;;;;;5075220;28;20724;-75
2021/09/05 01:51:34;;;;;;;9.32;7.20;;;16.40;99.90;;;;;;5075136;28;20205;-75
2021/09/05 01:54:02;;;;;;;9.75;7.40;;;16.30;99.90;;;;;;5075182;28;20319;-75
2021/09/05 01:56:29;;;;;;;9.77;8.00;;;16.20;99.90;;;;;;5075141;28;20292;-75
2021/09/05 01:58:56;;;;;;;9.35;7.88;;;16.30;99.90;;;;;;5075206;28;20560;-75
2021/09/05 02:01:23;;;;;;;9.45;7.30;;;16.40;99.90;;;;;;5075151;28;20643;-75
2021/09/05 02:03:51;;;;;;;10.38;7.53;;;16.40;99.90;;;;;;5075004;28;20276;-75
2021/09/05 02:06:18;;;;;;;8.95;6.70;;;16.50;99.90;;;;;;5074941;28;20201;-75
2021/09/05 02:08:45;;;;;;;7.65;6.75;;;16.40;99.90;;;;;;5074818;28;20218;-75
2021/09/05 02:11:12;;;;;;;7.18;6.28;;;16.40;99.90;;;;;;5075040;28;20572;-75
2021/09/05 02:13:40;;;;;;;8.07;6.32;;;16.40;99.90;;;;;;5074815;28;20238;-76
2021/09/05 02:16:07;;;;;;;8.15;6.05;;;16.40;99.90;;;;;;5074922;28;20296;-75
2021/09/05 02:18:34;;;;;;;8.45;6.90;;;16.40;99.90;;;;;;5074747;28;20216;-75
2021/09/05 02:21:03;;;;;;;7.20;5.90;;;16.30;99.90;;;;;;5074783;28;20208;-75
2021/09/05 02:23:29;;;;;;;7.45;6.38;;;16.30;99.90;;;;;;5074581;28;20206;-75
2021/09/05 02:25:56;;;;;;;8.95;6.28;;;16.20;99.90;;;;;;5074587;28;20297;-75
2021/09/05 02:28:23;;;;;;;8.55;6.45;;;16.20;99.90;;;;;;5073779;28;20301;-76
2021/09/05 02:30:50;;;;;;;8.73;7.20;;;16.00;99.90;;;;;;5074416;28;20317;-75
2021/09/05 02:33:17;;;;;;;7.95;6.30;;;15.90;99.90;;;;;;5074544;28;20299;-76
2021/09/05 02:35:44;;;;;;;7.88;6.50;;;15.90;99.90;;;;;;5074335;28;20209;-76
2021/09/05 02:38:12;;;;;;;7.35;6.28;;;15.90;99.90;;;;;;5074440;28;20206;-76
2021/09/05 02:40:39;;;;;;;8.82;6.85;;;15.90;99.90;;;;;;5074346;28;20305;-75
2021/09/05 02:43:06;;;;;;;9.48;7.38;;;16.00;99.90;;;;;;5074467;28;20210;-76
2021/09/05 02:45:33;;;;;;;7.10;6.40;;;15.90;99.90;;;;;;5074100;28;20225;-75
2021/09/05 02:48:00;;;;;;;7.70;6.35;;;16.00;99.90;;;;;;5074204;28;20206;-75
2021/09/05 02:50:27;;;;;;;7.45;6.22;;;16.00;99.90;;;;;;5073932;28;20225;-75
2021/09/05 02:52:53;;;;;;;7.78;6.40;;;16.00;99.90;;;;;;5074248;28;20627;-75
2021/09/05 02:55:22;;;;;;;8.75;6.80;;;15.90;99.90;;;;;;5073709;28;20315;-75
2021/09/05 02:57:48;;;;;;;9.38;7.20;;;15.60;99.90;;;;;;5073971;28;20739;-75
2021/09/05 03:00:16;;;;;;;9.55;6.93;;;15.40;99.90;;;;;;5073773;28;20228;-75
2021/09/05 03:02:43;;;;;;;9.15;7.40;;;15.30;99.90;;;;;;5074004;28;20641;-75
2021/09/05 03:05:10;;;;;;;7.22;6.53;;;15.30;99.90;;;;;;5073807;28;20220;-75
2021/09/05 03:07:37;;;;;;;8.23;6.95;;;15.50;99.90;;;;;;5073785;28;20202;-75
2021/09/05 03:10:04;;;;;;;7.75;6.82;;;15.50;99.90;;;;;;5073827;28;20311;-75
2021/09/05 03:12:33;;;;;;;7.70;6.32;;;15.60;99.90;;;;;;5073801;28;20216;-75
2021/09/05 03:14:59;;;;;;;7.47;6.40;;;15.60;99.90;;;;;;5073713;28;20235;-75
2021/09/05 03:17:27;;;;;;;7.38;6.57;;;15.70;99.90;;;;;;5073822;28;20205;-75
2021/09/05 03:19:54;;;;;;;11.30;7.95;;;15.70;99.90;;;;;;5073734;28;20198;-75
2021/09/05 03:22:21;;;;;;;8.65;6.55;;;15.80;99.90;;;;;;5073743;28;20241;-75
2021/09/05 03:24:47;;;;;;;8.27;6.43;;;15.90;99.90;;;;;;5073340;28;20261;-75
2021/09/05 03:27:14;;;;;;;8.07;6.63;;;15.80;99.90;;;;;;5073424;28;20296;-75
2021/09/05 03:29:42;;;;;;;7.90;6.35;;;15.80;99.90;;;;;;5073818;28;20317;-75
2021/09/05 03:32:09;;;;;;;7.97;7.00;;;15.70;99.90;;;;;;5073695;28;20635;-75
2021/09/05 03:34:36;;;;;;;8.85;6.85;;;15.80;99.90;;;;;;5073454;28;20714;-75
2021/09/05 03:37:03;;;;;;;8.60;7.22;;;15.80;99.90;;;;;;5073426;28;20296;-75
2021/09/05 03:39:30;;;;;;;9.65;7.63;;;15.80;99.90;;;;;;5073056;28;20689;-76
2021/09/05 03:41:57;;;;;;;8.32;7.10;;;15.50;99.90;;;;;;5073248;28;20308;-75
2021/09/05 03:44:24;;;;;;;8.05;6.72;;;15.50;99.90;;;;;;5073498;28;20647;-75
2021/09/05 03:46:52;;;;;;;9.90;7.47;;;15.40;99.90;;;;;;5073341;28;20208;-75
2021/09/05 03:49:19;;;;;;;8.52;6.85;;;15.50;99.90;;;;;;5073468;28;20315;-75
2021/09/05 03:51:45;;;;;;;10.10;7.63;;;15.50;99.90;;;;;;5073403;28;20667;-75
2021/09/05 03:54:12;;;;;;;12.27;7.85;;;15.60;99.90;;;;;;5073278;28;20665;-75
2021/09/05 03:56:39;;;;;;;10.07;7.13;;;15.60;99.90;;;;;;5073257;28;20294;-75
2021/09/05 03:59:06;;;;;;;10.82;8.30;;;15.60;99.90;;;;;;5073362;28;20292;-75
2021/09/05 04:01:33;;;;;;;8.20;7.10;;;15.50;99.90;;;;;;5073241;28;20300;-75
2021/09/05 04:04:01;;;;;;;10.15;7.40;;;15.50;99.90;;;;;;5073202;28;20222;-75
2021/09/05 04:06:28;;;;;;;9.10;7.70;;;15.50;99.90;;;;;;5073220;28;20206;-75
2021/09/05 04:08:56;;;;;;;9.20;7.40;;;15.50;99.90;;;;;;5073221;28;20332;-75
2021/09/05 04:11:22;;;;;;;11.32;7.68;;;15.50;99.90;;;;;;5072938;28;20239;-75
2021/09/05 04:13:49;;;;;;;8.13;6.70;;;15.40;99.90;;;;;;5073351;28;20226;-75
2021/09/05 04:16:16;;;;;;;8.40;7.15;;;15.50;99.90;;;;;;5073025;28;20212;-75
2021/09/05 04:18:43;;;;;;;9.50;7.47;;;15.60;99.90;;;;;;5073432;28;20299;-75
2021/09/05 04:21:11;;;;;;;9.05;7.38;;;15.60;99.90;;;;;;5073158;28;20201;-75
2021/09/05 04:23:38;;;;;;;9.32;7.60;;;15.50;99.90;;;;;;5073535;28;20264;-75
2021/09/05 04:26:05;;;;;;;11.50;7.72;;;15.50;99.90;;;;;;5072955;28;20237;-75
2021/09/05 04:28:32;;;;;;;9.82;7.80;;;15.60;99.90;;;;;;5073107;28;20210;-75
2021/09/05 04:30:58;;;;;;;9.38;7.20;;;15.60;99.90;;;;;;5072883;28;20321;-75
2021/09/05 04:33:25;;;;;;;11.45;7.78;;;15.60;99.90;;;;;;5072959;28;20296;-75
2021/09/05 04:35:52;;;;;;;10.88;6.97;;;15.60;99.90;;;;;;5072581;28;20252;-75
2021/09/05 04:38:20;;;;;;;10.35;7.63;;;15.60;99.90;;;;;;5072994;28;20292;-75
2021/09/05 04:40:47;;;;;;;11.93;8.23;;;15.60;99.90;;;;;;5072785;28;20299;-75
2021/09/05 04:43:14;;;;;;;11.43;7.90;;;15.50;99.90;;;;;;5073162;28;20218;-75
2021/09/05 04:45:41;;;;;;;8.80;7.00;;;15.40;99.90;;;;;;5072625;28;20321;-75
2021/09/05 04:48:08;;;;;;;10.68;7.45;;;15.40;99.90;;;;;;5072815;28;20754;-75
2021/09/05 04:50:34;;;;;;;8.90;7.30;;;15.40;99.90;;;;;;5072658;28;20237;-75
2021/09/05 04:53:01;;;;;;;11.30;7.70;;;15.50;99.90;;;;;;5075453;28;20210;-75
2021/09/05 04:55:29;;;;;;;9.23;7.40;;;15.50;99.90;;;;;;5076256;28;20311;-75
2021/09/05 04:57:56;;;;;;;11.90;8.25;;;15.40;99.90;;;;;;5076391;28;20240;-75
2021/09/05 05:00:23;;;;;;;8.40;7.35;;;15.30;99.90;;;;;;5076256;28;20752;-75
2021/09/05 05:02:50;;;;;;;13.55;6.82;;;15.40;99.90;;;;;;5076197;28;20295;-75
2021/09/05 05:05:17;;;;;;;9.18;7.70;;;15.40;99.90;;;;;;5076172;28;20225;-75
2021/09/05 05:07:43;;;;;;;9.32;7.30;;;15.50;99.90;;;;;;5076180;28;20300;-75
2021/09/05 05:10:11;;;;;;;10.43;7.18;;;15.50;99.90;;;;;;5076166;28;20222;-75
2021/09/05 05:12:39;;;;;;;13.68;10.32;;;15.60;99.90;;;;;;5076212;28;20295;-75
2021/09/05 05:15:07;;;;;;;12.15;9.65;;;15.50;99.90;;;;;;5075661;28;20247;-75
2021/09/05 05:17:34;;;;;;;10.90;8.90;;;15.50;99.90;;;;;;5076058;28;20292;-75
2021/09/05 05:20:01;;;;;;;9.80;8.02;;;15.50;99.90;;;;;;5076082;28;20251;-75
2021/09/05 05:22:28;;;;;;;11.88;9.00;;;15.50;99.90;;;;;;5075976;28;20620;-75
2021/09/05 05:24:54;;;;;;;9.20;8.07;;;15.40;99.90;;;;;;5075452;28;20229;-75
2021/09/05 05:27:21;;;;;;;9.02;7.00;;;15.40;99.90;;;;;;5075884;28;20304;-75
2021/09/05 05:29:49;;;;;;;10.38;7.43;;;15.40;99.90;;;;;;5075688;28;20200;-75
2021/09/05 05:32:16;;;;;;;10.80;7.85;;;15.40;99.90;;;;;;5075794;28;20295;-75
2021/09/05 05:34:43;;;;;;;11.23;8.15;;;15.50;99.90;;;;;;5075721;28;20251;-75
2021/09/05 05:37:10;;;;;;;9.23;6.95;;;15.40;99.90;;;;;;5075531;28;20295;-75
2021/09/05 05:39:37;;;;;;;10.57;8.15;;;15.40;99.90;;;;;;5075681;28;20301;-75
2021/09/05 05:42:04;;;;;;;11.93;8.13;;;15.50;99.90;;;;;;5075455;28;20225;-75
2021/09/05 05:44:32;;;;;;;12.38;7.13;;;15.60;99.90;;;;;;5075458;28;20256;-76
2021/09/05 05:47:00;;;;;;;8.60;7.65;;;15.70;99.90;;;;;;5075178;28;20212;-75
2021/09/05 05:49:27;;;;;;;9.48;7.15;;;15.60;99.90;;;;;;5075196;28;20296;-75
2021/09/05 05:51:54;;;;;;;9.73;8.00;;;15.50;99.90;;;;;;5075486;28;20229;-75
2021/09/05 05:54:21;;;;;;;10.50;8.63;;;15.50;99.90;;;;;;5075153;28;20226;-75
2021/09/05 05:56:47;;;;;;;11.95;8.82;;;15.50;99.90;;;;;;5075064;28;20295;-75
2021/09/05 05:59:14;;;;;;;11.10;9.05;;;15.40;99.90;;;;;;5075193;28;20639;-75
2021/09/05 06:01:42;;;;;;;13.55;10.20;;;15.40;99.90;;;;;;5075209;28;20291;-75
2021/09/05 06:04:10;;;;;;;10.88;9.57;;;15.30;99.90;;;;;;5075016;28;20315;-75
2021/09/05 06:06:38;;;;;;;10.00;8.20;;;15.30;99.90;;;;;;5074939;28;20200;-75
2021/09/05 06:09:05;;;;;;;12.43;8.95;;;15.30;99.90;;;;;;5074939;28;20212;-75
2021/09/05 06:11:32;;;;;;;9.73;8.55;;;15.40;99.90;;;;;;5074851;28;20693;-75
2021/09/05 06:13:59;;;;;;;11.57;9.27;;;15.40;99.90;;;;;;5074849;28;20312;-75
2021/09/05 06:16:27;;;;;;;11.40;9.00;;;15.50;99.90;;;;;;5074727;28;20237;-75
2021/09/05 06:18:54;;;;;;;10.38;8.93;;;15.60;99.90;;;;;;5074837;28;20210;-75
2021/09/05 06:21:22;;;;;;;10.20;8.55;;;15.70;99.90;;;;;;5074928;28;20731;-75
2021/09/05 06:23:49;;;;;;;10.18;8.15;;;15.70;99.90;;;;;;5074593;28;20316;-75
2021/09/05 06:26:16;;;;;;;11.95;9.02;;;15.70;99.90;;;;;;5074556;28;20236;-75
2021/09/05 06:28:43;;;;;;;12.40;9.20;;;15.80;99.90;;;;;;5074393;28;20241;-75
2021/09/05 06:31:09;;;;;;;10.93;8.75;;;15.90;99.90;;;;;;5074507;28;20233;-75
2021/09/05 06:33:36;;;;;;;10.65;8.20;;;16.00;99.90;;;;;;5074286;28;20203;-75
2021/09/05 06:36:03;;;;;;;10.68;8.38;;;16.00;99.90;;;;;;5074387;28;20301;-75
2021/09/05 06:38:32;;;;;;;12.43;9.00;;;15.90;99.90;;;;;;5074167;28;20212;-75
2021/09/05 06:40:58;;;;;;;12.05;8.82;;;15.80;99.90;;;;;;5074157;28;20672;-75
2021/09/05 06:43:25;;;;;;;11.98;9.55;;;15.90;99.90;;;;;;5074319;28;20300;-75
2021/09/05 06:45:52;;;;;;;10.73;8.57;;;16.00;99.90;;;;;;5074174;28;20623;-75
2021/09/05 06:48:19;;;;;;;11.80;8.50;;;16.00;99.90;;;;;;5074274;28;20301;-75
2021/09/05 06:50:46;;;;;;;11.70;8.73;;;16.10;99.90;;;;;;5074170;28;20317;-75
2021/09/05 06:53:13;;;;;;;10.23;7.68;;;16.00;99.90;;;;;;5074081;28;20263;-75
2021/09/05 06:55:42;;;;;;;13.68;8.90;;;16.00;99.90;;;;;;5073835;28;20581;-75
2021/09/05 06:58:08;;;;;;;10.43;8.50;;;16.10;99.90;;;;;;5073883;28;20205;-75
2021/09/05 07:00:35;;;;;;;9.82;8.40;;;16.10;99.90;;;;;;5074077;28;20289;-75
2021/09/05 07:03:02;;;;;;;9.40;8.25;;;16.00;99.90;;;;;;5073905;28;20295;-75
2021/09/05 07:05:29;;;;;;;9.30;7.90;;;16.00;99.90;;;;;;5073824;28;20316;-75
2021/09/05 07:07:57;;;;;;;9.45;7.95;;;16.10;99.90;;;;;;5073892;28;20213;-75
2021/09/05 07:10:24;;;;;;;9.95;8.05;;;16.20;99.90;;;;;;5073892;28;20230;-75
2021/09/05 07:12:53;;;;;;;10.55;8.32;;;16.20;99.90;;;;;;5073939;28;20205;-75
2021/09/05 07:15:20;;;;;;;10.40;7.13;;;16.30;99.90;;;;;;5073296;28;20561;-75
2021/09/05 07:17:47;;;;;;;9.40;8.40;;;16.40;99.90;;;;;;5074271;28;20249;-75
2021/09/05 07:20:14;;;;;;;9.85;8.20;;;16.60;99.90;;;;;;5073943;28;20634;-75
2021/09/05 07:22:40;;;;;;;9.77;7.88;;;16.70;99.90;;;;;;5073740;28;20201;-75
2021/09/05 07:25:08;;;;;;;11.35;8.10;;;16.80;99.90;;;;;;5073572;28;20253;-75
2021/09/05 07:27:35;;;;;;;9.43;7.47;;;16.80;99.90;;;;;;5073712;28;20210;-75
2021/09/05 07:30:04;;;;;;;8.63;7.05;;;16.90;99.90;;;;;;5073633;28;20285;-75
2021/09/05 07:32:31;;;;;;;7.50;6.63;;;16.80;99.90;;;;;;5073623;28;20280;-75
2021/09/05 07:34:58;;;;;;;9.52;7.72;;;16.80;99.90;;;;;;5073222;28;20305;-75
2021/09/05 07:37:25;;;;;;;10.20;8.20;;;16.80;99.90;;;;;;5073675;28;20293;-75
2021/09/05 07:39:52;;;;;;;10.43;7.90;;;16.90;99.90;;;;;;5073676;28;20336;-76
2021/09/05 07:42:18;;;;;;;9.73;7.50;;;16.90;99.90;;;;;;5073434;28;20301;-76
2021/09/05 07:44:45;;;;;;;9.50;7.13;;;17.00;99.90;;;;;;5073258;28;20226;-76
2021/09/05 07:47:13;;;;;;;9.32;7.15;;;17.00;99.90;;;;;;5073557;28;20237;-75
2021/09/05 07:49:40;;;;;;;8.90;7.20;;;17.00;99.90;;;;;;5073429;28;20203;-75
2021/09/05 07:52:07;;;;;;;9.00;7.32;;;17.00;99.90;;;;;;5074007;28;20627;-75
2021/09/05 07:54:34;;;;;;;11.73;7.88;;;17.00;99.90;;;;;;5073129;28;20739;-75
2021/09/05 07:57:01;;;;;;;9.00;8.07;;;17.00;99.90;;;;;;5073239;28;20208;-75
2021/09/05 07:59:28;;;;;;;9.65;7.63;;;17.00;99.90;;;;;;5073545;28;20738;-75
2021/09/05 08:01:54;;;;;;;10.70;8.10;;;17.00;99.90;;;;;;5073394;28;20302;-75
2021/09/05 08:04:23;;;;;;;9.75;7.50;;;17.00;99.90;;;;;;5072998;28;20317;-75
2021/09/05 08:06:49;;;;;;;9.93;8.45;;;17.10;99.90;;;;;;5073226;28;20252;-75
2021/09/05 08:09:16;;;;;;;8.52;7.40;;;17.10;99.90;;;;;;5073360;28;20305;-75
2021/09/05 08:11:43;;;;;;;9.18;7.22;;;17.20;99.90;;;;;;5073497;28;20223;-75
2021/09/05 08:14:10;;;;;;;8.80;7.40;;;17.40;99.90;;;;;;5073113;28;20651;-75
2021/09/05 08:16:38;;;;;;;7.88;7.07;;;17.50;99.90;;;;;;5073105;28;20293;-75
2021/09/05 08:19:05;;;;;;;7.70;6.80;;;17.60;99.90;;;;;;5072918;28;20673;-75
2021/09/05 08:21:34;;;;;;;9.02;7.50;;;17.70;99.90;;;;;;5073175;28;20534;-75
2021/09/05 08:24:00;;;;;;;8.27;7.43;;;17.80;99.90;;;;;;5072928;28;20726;-75
2021/09/05 08:26:27;;;;;;;9.50;7.55;;;17.90;99.90;;;;;;5073778;28;20206;-75
2021/09/05 08:28:54;;;;;;;8.88;7.03;;;17.90;99.90;;;;;;5076977;28;20209;-75
2021/09/05 08:31:21;;;;;;;8.43;7.05;;;17.90;99.90;;;;;;5076776;28;20692;-75
2021/09/05 08:33:48;;;;;;;11.10;7.60;;;18.00;99.90;;;;;;5076596;28;20309;-75
2021/09/05 08:36:15;;;;;;;9.23;7.20;;;18.20;99.90;;;;;;5076524;28;20293;-75
2021/09/05 08:38:43;;;;;;;9.18;7.80;;;18.30;99.90;;;;;;5076919;28;20293;-75
2021/09/05 08:41:10;;;;;;;8.82;7.25;;;18.40;99.90;;;;;;5076561;28;20223;-75
2021/09/05 08:43:37;;;;;;;7.53;6.45;;;18.60;99.90;;;;;;5076605;28;20313;-75
2021/09/05 08:46:05;;;;;;;7.97;7.07;;;18.70;99.90;;;;;;5076538;28;20205;-75
2021/09/05 08:48:32;;;;;;;8.18;6.80;;;18.70;99.90;;;;;;5076616;28;20210;-75
2021/09/05 08:50:59;;;;;;;9.98;6.97;;;18.80;99.90;;;;;;5076566;28;20309;-75
2021/09/05 08:53:25;;;;;;;7.70;6.90;;;18.80;99.90;;;;;;5076556;28;20203;-75
2021/09/05 08:55:54;;;;;;;8.00;6.30;;;18.90;99.90;;;;;;5076426;28;20538;-75
2021/09/05 08:58:20;;;;;;;7.53;6.78;;;18.90;99.90;;;;;;5076580;28;20206;-75
2021/09/05 09:00:47;;;;;;;7.10;6.10;;;19.00;99.90;;;;;;5076464;28;20293;-75
2021/09/05 09:03:20;;;;;;;8.17;6.33;;;19.10;99.90;;;;;;5076222;28;20443;-75
2021/09/05 09:05:51;;;;;;;7.00;5.93;;;19.20;99.90;;;;;;5076255;28;20796;-75
2021/09/05 09:08:18;;;;;;;7.17;5.87;;;19.20;99.90;;;;;;5076350;28;20449;-75
2021/09/05 09:10:49;;;;;;;7.60;6.03;;;19.40;99.90;;;;;;5076587;28;20464;-75
2021/09/05 09:13:40;;;;;;;7.47;6.03;;;19.40;99.90;;;;;;5076185;28;20566;-75
2021/09/05 09:16:08;;;;;;;6.80;5.83;;;19.60;99.90;;;;;;5072051;28;20947;-75
2021/09/05 09:18:37;;;;;;;6.87;5.90;;;19.70;99.90;;;;;;5076054;28;20475;-75
2021/09/05 09:21:06;;;;;;;7.13;6.40;;;19.80;99.90;;;;;;5076130;28;20950;-75
2021/09/05 09:23:36;;;;;;;10.37;6.30;;;19.90;99.90;;;;;;5076012;28;20447;-75
2021/09/05 09:26:06;;;;;;;6.13;5.60;;;20.00;99.90;;;;;;5075981;28;20801;-75
2021/09/05 09:28:35;;;;;;;7.80;6.23;;;20.10;99.90;;;;;;5076661;28;20785;-75
2021/09/05 09:31:16;;;;;;;6.67;5.33;;;20.20;99.90;;;;;;5076178;28;20530;-75
2021/09/05 09:33:43;;;;;;;6.77;5.53;;;20.30;99.90;;;;;;5075960;28;20470;-76
2021/09/05 09:36:13;;;;;;;6.90;6.20;;;20.50;99.90;;;;;;5075733;28;20448;-75
2021/09/05 09:38:42;;;;;;;7.00;6.37;;;20.70;99.90;;;;;;5075364;28;20533;-75
2021/09/05 09:41:12;;;;;;;7.67;6.10;;;20.90;99.90;;;;;;5075331;28;20976;-76
2021/09/05 09:43:49;;;;;;;6.80;5.40;;;21.10;99.90;;;;;;5075542;28;20547;-75
2021/09/05 09:46:20;;;;;;;6.07;5.47;;;21.40;99.90;;;;;;5075526;28;20522;-76
2021/09/05 09:48:49;;;;;;;5.80;5.20;;;22.50;99.90;;;;;;5075941;28;20446;-76
2021/09/05 09:51:16;;;;;;;6.50;5.43;;;24.40;99.90;;;;;;5075490;28;20487;-76
2021/09/05 09:53:44;;;;;;;5.67;5.17;;;25.90;97.30;;;;;;5075629;28;20551;-76
2021/09/05 09:56:16;;;;;;;5.60;5.10;;;27.60;94.10;;;;;;5075801;28;20442;-76
2021/09/05 09:58:43;;;;;;;5.77;5.20;;;28.20;90.70;;;;;;5075686;28;20441;-76
2021/09/05 10:01:11;;;;;;;5.23;4.73;;;29.50;87.50;;;;;;5075783;28;20445;-76
2021/09/05 10:03:41;;;;;;;5.40;4.90;;;29.90;81.60;;;;;;5075341;28;20794;-76
2021/09/05 10:06:10;;;;;;;5.20;4.80;;;29.70;75.90;;;;;;5075623;28;20780;-76
2021/09/05 10:08:40;;;;;;;4.70;4.30;;;29.50;73.90;;;;;;5075388;28;20543;-76
2021/09/05 10:11:09;;;;;;;5.83;5.30;;;29.00;73.00;;;;;;5075218;28;21014;-75
2021/09/05 10:13:38;;;;;;;5.37;4.83;;;28.20;73.80;;;;;;5074804;28;20448;-76
2021/09/05 10:16:06;;;;;;;5.53;4.60;;;27.60;76.50;;;;;;5075039;28;20886;-76
2021/09/05 10:18:34;;;;;;;4.63;4.23;;;27.40;81.10;;;;;;5075242;28;20523;-76
2021/09/05 10:21:05;;;;;;;5.00;4.60;;;27.70;80.40;;;;;;5075088;28;20882;-76
2021/09/05 10:23:33;;;;;;;4.87;4.37;;;27.70;75.20;;;;;;5074759;28;20437;-76
2021/09/05 10:26:06;;;;;;;5.00;4.60;;;27.90;75.40;;;;;;5075070;28;20453;-76
2021/09/05 10:28:34;;;;;;;5.20;4.70;;;28.10;76.60;;;;;;5074907;28;20532;-76
2021/09/05 10:31:01;;;;;;;5.10;4.60;;;28.10;75.90;;;;;;5075347;28;20442;-76
2021/09/05 10:33:33;;;;;;;4.40;4.00;;;28.50;74.10;;;;;;5074727;28;20496;-76
2021/09/05 10:36:07;;;;;;;5.17;4.67;;;28.10;75.00;;;;;;5074338;28;20810;-76
2021/09/05 10:38:35;;;;;;;4.33;3.93;;;28.50;77.30;;;;;;5074805;28;20431;-76
2021/09/05 10:41:06;;;;;;;4.70;4.30;;;29.00;76.10;;;;;;5074463;28;20475;-76
2021/09/05 10:43:53;;;;;;;5.13;4.27;;;29.70;68.80;;;;;;5074533;28;20447;-76
2021/09/05 10:46:22;;;;;;;4.37;3.97;;;30.30;65.40;;;;;;5074263;28;20536;-76
2021/09/05 10:48:53;;;;;;;5.43;4.93;;;30.30;65.70;;;;;;5073939;28;20437;-76
2021/09/05 10:51:23;;;;;;;5.10;4.57;;;30.50;64.30;;;;;;5074291;28;20444;-76
2021/09/05 10:53:53;;;;;;;4.90;4.47;;;30.20;66.70;;;;;;5074243;28;20465;-76
2021/09/05 10:56:22;;;;;;;5.40;4.90;;;29.80;67.10;;;;;;5074192;28;20455;-76
2021/09/05 10:58:55;;;;;;;4.83;4.33;;;29.60;62.70;;;;;;5074147;28;20993;-76
2021/09/05 11:01:30;;;;;;;4.20;3.80;;;29.50;61.30;;;;;;5074304;28;20448;-76
2021/09/05 11:04:21;;;;;;;4.33;3.93;;;29.40;63.50;;;;;;5075092;28;20464;-76
2021/09/05 11:06:50;;;;;;;4.60;4.17;;;29.30;67.90;;;;;;5074662;28;20511;-75
2021/09/05 11:09:45;;;;;;;4.70;4.30;;;29.90;62.50;;;;;;5074234;28;20441;-76
2021/09/05 11:12:23;;;;;;;4.63;4.23;;;30.30;62.00;;;;;;5074062;28;21007;-76
2021/09/05 11:15:19;;;;;;;4.63;4.20;;;30.90;63.50;;;;;;5073933;28;20474;-75
2021/09/05 11:17:54;;;;;;;4.70;4.30;;;31.20;59.40;;;;;;5040178;28;20457;-76
2021/09/05 11:20:21;;;;;;;5.93;5.00;;;31.70;60.10;;;;;;5074853;28;20443;-76
2021/09/05 11:22:50;;;;;;;5.00;4.60;;;32.10;56.70;;;;;;5074588;28;20436;-76
2021/09/05 11:25:26;;;;;;;5.00;4.40;;;32.70;56.80;;;;;;5074728;28;20470;-76
2021/09/05 11:27:58;;;;;;;4.10;3.80;;;33.00;56.00;;;;;;5075227;28;20443;-77
2021/09/05 11:30:28;;;;;;;4.67;4.27;;;33.10;53.60;;;;;;5075441;28;20437;-76
2021/09/05 11:33:03;;;;;;;4.13;3.73;;;33.30;53.30;;;;;;5073959;28;21077;-76
2021/09/05 11:35:39;;;;;;;4.67;4.27;;;33.10;54.80;;;;;;5074440;28;20479;-76
2021/09/05 11:38:08;;;;;;;5.20;4.40;;;32.70;50.80;;;;;;5074179;28;20440;-76
2021/09/05 11:40:46;;;;;;;4.20;3.80;;;32.60;53.80;;;;;;5074391;28;20945;-76
2021/09/05 11:43:13;;;;;;;4.47;4.10;;;32.20;49.70;;;;;;5073971;28;20532;-76
2021/09/05 11:45:41;;;;;;;3.80;3.50;;;31.30;55.00;;;;;;5073794;28;20548;-76
2021/09/05 11:48:09;;;;;;;5.83;5.20;;;30.40;55.80;;;;;;5073977;28;20952;-75
2021/09/05 11:50:37;;;;;;;5.40;4.47;;;29.70;56.90;;;;;;5073988;28;20449;-76
2021/09/05 11:53:05;;;;;;;4.10;3.70;;;29.40;56.70;;;;;;5073596;28;20486;-76
2021/09/05 11:55:33;;;;;;;4.53;4.13;;;29.10;56.70;;;;;;5073640;28;20984;-75
2021/09/05 11:58:02;;;;;;;4.00;3.70;;;28.70;62.70;;;;;;5073774;28;20935;-75
2021/09/05 12:00:31;;;;;;;4.30;3.90;;;28.40;55.40;;;;;;5074692;28;20484;-75
2021/09/05 12:02:59;;;;;;;4.40;4.00;;;28.00;57.40;;;;;;5077778;28;20438;-75
2021/09/05 12:05:27;;;;;;;4.70;4.30;;;28.00;62.80;;;;;;5077598;28;20479;-75
2021/09/05 12:07:55;;;;;;;4.23;3.83;;;27.80;60.10;;;;;;5077772;28;20523;-76
2021/09/05 12:10:24;;;;;;;4.80;4.40;;;27.60;58.40;;;;;;5078120;28;20531;-75
2021/09/05 12:13:04;;;;;;;4.17;3.77;;;27.50;60.80;;;;;;5077247;28;20476;-75
2021/09/05 12:15:33;;;;;;;5.60;4.63;;;27.30;67.80;;;;;;5077045;28;20551;-76
2021/09/05 12:18:00;;;;;;;4.70;4.30;;;27.30;65.20;;;;;;5077459;28;20437;-75
2021/09/05 12:20:41;;;;;;;4.47;4.07;;;27.40;64.20;;;;;;5077296;28;20923;-76
2021/09/05 12:23:22;;;;;;;6.13;5.33;;;27.30;65.40;;;;;;5077229;28;20440;-75
2021/09/05 12:25:50;;;;;;;4.40;4.00;;;27.20;65.20;;;;;;5076970;28;20425;-76
2021/09/05 12:28:24;;;;;;;3.93;3.57;;;27.10;60.40;;;;;;5077130;28;20528;-75
2021/09/05 12:30:53;;;;;;;5.57;4.43;;;27.20;60.90;;;;;;5077203;28;20498;-76
2021/09/05 12:33:21;;;;;;;5.13;4.70;;;27.20;67.30;;;;;;5077290;28;20481;-75
2021/09/05 12:35:50;;;;;;;5.17;4.47;;;26.90;59.70;;;;;;5076677;28;20851;-75
2021/09/05 12:38:25;;;;;;;4.30;3.90;;;26.90;65.80;;;;;;5077100;28;20524;-75
2021/09/05 12:40:53;;;;;;;3.83;3.53;;;26.90;63.20;;;;;;5077178;28;20454;-75
2021/09/05 12:43:42;;;;;;;3.87;3.57;;;26.90;63.00;;;;;;5077159;28;20441;-75
2021/09/05 12:46:09;;;;;;;4.40;4.00;;;26.90;59.40;;;;;;5076715;28;20854;-75
2021/09/05 12:48:37;;;;;;;5.40;3.63;;;26.90;61.40;;;;;;5076711;28;20527;-75
2021/09/05 12:51:06;;;;;;;4.53;4.13;;;26.80;61.50;;;;;;5076829;28;20532;-75